createdAt,value
2018-03-22T00:00:28.404Z,88.70
2018-03-22T00:01:28.373Z,88.70
2018-03-22T00:02:28.372Z,89.26
2018-03-22T00:03:49.351Z,89.36
2018-03-22T00:04:28.322Z,89.26
2018-03-22T00:05:28.290Z,89.64
2018-03-22T00:06:28.269Z,89.73
2018-03-22T00:07:28.309Z,89.64
2018-03-22T00:08:28.207Z,89.07
2018-03-22T00:09:49.154Z,89.36
2018-03-22T00:10:28.183Z,89.26
2018-03-22T00:11:28.130Z,89.07
2018-03-22T00:12:28.122Z,89.26
2018-03-22T00:13:28.115Z,89.26
2018-03-22T00:14:28.045Z,89.26
2018-03-22T00:15:49.040Z,89.45
2018-03-22T00:16:28.004Z,89.45
2018-03-22T00:17:28.013Z,89.73
2018-03-22T00:18:27.946Z,89.92
2018-03-22T00:19:27.913Z,89.83
2018-03-22T00:20:27.919Z,89.73
2018-03-22T00:21:48.981Z,89.45
2018-03-22T00:22:27.854Z,88.98
2018-03-22T00:23:27.882Z,89.17
2018-03-22T00:24:27.806Z,89.54
2018-03-22T00:25:27.815Z,90.02
2018-03-22T00:26:27.771Z,89.92
2018-03-22T00:27:48.764Z,90.02
2018-03-22T00:28:27.723Z,89.54
2018-03-22T00:29:27.732Z,89.54
2018-03-22T00:30:27.688Z,89.64
2018-03-22T00:31:27.679Z,89.54
2018-03-22T00:32:27.620Z,89.36
2018-03-22T00:33:48.591Z,89.83
2018-03-22T00:34:27.576Z,89.45
2018-03-22T00:35:27.532Z,90.11
2018-03-22T00:36:27.532Z,90.40
2018-03-22T00:37:27.489Z,90.21
2018-03-22T00:38:27.456Z,89.83
2018-03-22T00:39:48.448Z,90.02
2018-03-22T00:40:27.428Z,89.07
2018-03-22T00:41:27.405Z,88.98
2018-03-22T00:42:27.372Z,89.26
2018-03-22T00:43:27.382Z,89.45
2018-03-22T00:44:27.348Z,89.45
2018-03-22T00:45:48.289Z,88.98
2018-03-22T00:46:27.286Z,89.17
2018-03-22T00:47:27.263Z,89.54
2018-03-22T00:48:27.212Z,89.64
2018-03-22T00:49:27.185Z,89.26
2018-03-22T00:50:27.209Z,89.36
2018-03-22T00:51:48.146Z,88.89
2018-03-22T00:52:27.108Z,88.70
2018-03-22T00:53:27.118Z,88.89
2018-03-22T00:54:27.082Z,88.70
2018-03-22T00:55:27.017Z,88.70
2018-03-22T00:56:27.150Z,88.98
2018-03-22T00:57:48.014Z,88.42
2018-03-22T00:58:26.970Z,89.07
2018-03-22T00:59:26.938Z,89.07
2018-03-22T01:00:26.944Z,89.17
2018-03-22T01:01:26.887Z,88.89
2018-03-22T01:02:26.854Z,88.98
2018-03-22T01:03:47.856Z,89.26
2018-03-22T01:04:26.805Z,89.45
2018-03-22T01:05:26.810Z,89.64
2018-03-22T01:06:26.795Z,89.54
2018-03-22T01:07:26.735Z,90.68
2018-03-22T01:08:26.724Z,89.83
2018-03-22T01:09:47.672Z,89.92
2018-03-22T01:10:26.680Z,90.21
2018-03-22T01:11:26.695Z,90.49
2018-03-22T01:12:26.618Z,89.83
2018-03-22T01:13:26.594Z,89.73
2018-03-22T01:14:26.604Z,90.49
2018-03-22T01:15:47.535Z,90.40
2018-03-22T01:16:26.543Z,89.92
2018-03-22T01:17:26.515Z,90.02
2018-03-22T01:18:26.467Z,90.21
2018-03-22T01:19:26.529Z,90.02
2018-03-22T01:20:26.408Z,90.02
2018-03-22T01:21:47.402Z,89.83
2018-03-22T01:22:26.417Z,89.83
2018-03-22T01:23:26.336Z,89.73
2018-03-22T01:24:26.315Z,89.83
2018-03-22T01:25:26.285Z,89.92
2018-03-22T01:26:26.273Z,90.02
2018-03-22T01:27:47.271Z,90.77
2018-03-22T01:28:26.295Z,90.77
2018-03-22T01:29:26.208Z,90.77
2018-03-22T01:30:26.160Z,91.15
2018-03-22T01:31:26.153Z,91.34
2018-03-22T01:32:26.134Z,90.96
2018-03-22T01:33:47.112Z,90.96
2018-03-22T01:34:26.078Z,91.15
2018-03-22T01:35:26.078Z,91.25
2018-03-22T01:36:26.031Z,91.25
2018-03-22T01:37:26.009Z,91.06
2018-03-22T01:38:25.984Z,91.25
2018-03-22T01:39:47.010Z,91.06
2018-03-22T01:40:25.939Z,91.53
2018-03-22T01:41:25.918Z,91.06
2018-03-22T01:42:25.877Z,91.34
2018-03-22T01:43:25.865Z,91.15
2018-03-22T01:44:25.814Z,90.96
2018-03-22T01:45:46.823Z,90.96
2018-03-22T01:46:25.835Z,91.53
2018-03-22T01:47:25.740Z,91.34
2018-03-22T01:48:25.763Z,91.53
2018-03-22T01:49:25.719Z,91.06
2018-03-22T01:50:25.705Z,90.77
2018-03-22T01:51:46.653Z,90.96
2018-03-22T01:52:25.632Z,90.40
2018-03-22T01:53:25.590Z,90.30
2018-03-22T01:54:25.580Z,89.54
2018-03-22T01:55:25.566Z,89.64
2018-03-22T01:56:25.552Z,89.73
2018-03-22T01:57:46.508Z,89.83
2018-03-22T01:58:25.491Z,89.92
2018-03-22T01:59:25.485Z,89.64
2018-03-22T02:00:25.424Z,90.59
2018-03-22T02:01:25.388Z,89.54
2018-03-22T02:02:25.366Z,89.69
2018-03-22T02:03:46.364Z,89.22
2018-03-22T02:04:25.327Z,89.50
2018-03-22T02:05:25.325Z,89.12
2018-03-22T02:06:25.326Z,88.74
2018-03-22T02:07:25.248Z,88.93
2018-03-22T02:08:25.232Z,88.74
2018-03-22T02:09:46.249Z,88.27
2018-03-22T02:10:25.241Z,88.08
2018-03-22T02:11:25.213Z,88.55
2018-03-22T02:12:25.199Z,87.98
2018-03-22T02:13:25.105Z,88.27
2018-03-22T02:14:25.142Z,88.08
2018-03-22T02:15:46.054Z,87.98
2018-03-22T02:16:25.038Z,87.98
2018-03-22T02:17:25.026Z,88.08
2018-03-22T02:18:25.062Z,88.27
2018-03-22T02:19:24.959Z,88.17
2018-03-22T02:20:25.007Z,88.17
2018-03-22T02:21:45.905Z,87.98
2018-03-22T02:22:24.920Z,87.98
2018-03-22T02:23:24.893Z,87.89
2018-03-22T02:24:25.791Z,87.98
2018-03-22T02:25:24.831Z,87.79
2018-03-22T02:26:24.795Z,88.27
2018-03-22T02:27:45.751Z,88.36
2018-03-22T02:28:24.738Z,88.65
2018-03-22T02:29:24.740Z,88.74
2018-03-22T02:30:24.679Z,88.93
2018-03-22T02:31:24.716Z,89.03
2018-03-22T02:32:24.654Z,89.12
2018-03-22T02:33:45.665Z,89.31
2018-03-22T02:34:24.616Z,89.31
2018-03-22T02:35:24.582Z,89.22
2018-03-22T02:36:24.589Z,88.65
2018-03-22T02:37:24.523Z,88.74
2018-03-22T02:38:24.517Z,88.74
2018-03-22T02:39:45.542Z,88.74
2018-03-22T02:40:24.461Z,88.74
2018-03-22T02:41:24.489Z,88.36
2018-03-22T02:42:24.454Z,88.27
2018-03-22T02:43:24.449Z,88.36
2018-03-22T02:44:24.350Z,88.74
2018-03-22T02:45:45.405Z,88.65
2018-03-22T02:46:24.331Z,88.93
2018-03-22T02:47:24.284Z,88.36
2018-03-22T02:48:24.335Z,88.36
2018-03-22T02:49:24.261Z,88.36
2018-03-22T02:50:24.221Z,87.98
2018-03-22T02:51:45.214Z,87.98
2018-03-22T02:52:24.203Z,87.98
2018-03-22T02:53:24.133Z,87.98
2018-03-22T02:54:24.110Z,88.27
2018-03-22T02:55:24.091Z,87.61
2018-03-22T02:56:24.045Z,88.08
2018-03-22T02:57:45.012Z,87.89
2018-03-22T02:58:24.016Z,88.17
2018-03-22T02:59:23.990Z,87.98
2018-03-22T03:00:23.984Z,88.08
2018-03-22T03:01:23.961Z,87.98
2018-03-22T03:02:23.890Z,88.08
2018-03-22T03:03:44.877Z,88.17
2018-03-22T03:04:23.880Z,87.98
2018-03-22T03:05:23.836Z,88.17
2018-03-22T03:06:23.813Z,87.89
2018-03-22T03:07:23.777Z,87.79
2018-03-22T03:08:23.775Z,88.65
2018-03-22T03:09:44.747Z,88.46
2018-03-22T03:10:23.698Z,89.03
2018-03-22T03:11:23.679Z,88.74
2018-03-22T03:12:23.659Z,88.65
2018-03-22T03:13:23.638Z,88.84
2018-03-22T03:14:23.634Z,88.74
2018-03-22T03:15:44.594Z,88.74
2018-03-22T03:16:23.563Z,88.65
2018-03-22T03:17:23.538Z,88.74
2018-03-22T03:18:23.547Z,88.74
2018-03-22T03:19:23.498Z,88.84
2018-03-22T03:20:23.468Z,88.74
2018-03-22T03:21:44.464Z,88.65
2018-03-22T03:22:23.448Z,88.74
2018-03-22T03:23:23.412Z,88.74
2018-03-22T03:24:23.440Z,88.74
2018-03-22T03:25:23.408Z,88.74
2018-03-22T03:26:23.333Z,88.65
2018-03-22T03:27:44.316Z,88.74
2018-03-22T03:28:23.311Z,88.74
2018-03-22T03:29:23.250Z,88.74
2018-03-22T03:30:23.273Z,88.74
2018-03-22T03:31:23.196Z,88.36
2018-03-22T03:32:23.214Z,88.84
2018-03-22T03:33:44.183Z,88.84
2018-03-22T03:34:23.132Z,89.12
2018-03-22T03:35:23.122Z,88.65
2018-03-22T03:36:23.088Z,88.74
2018-03-22T03:37:23.075Z,88.84
2018-03-22T03:38:23.077Z,88.46
2018-03-22T03:39:44.051Z,88.93
2018-03-22T03:40:23.986Z,88.55
2018-03-22T03:41:22.970Z,88.74
2018-03-22T03:42:22.967Z,88.84
2018-03-22T03:43:22.934Z,88.65
2018-03-22T03:44:22.932Z,88.36
2018-03-22T03:45:43.887Z,88.36
2018-03-22T03:46:22.829Z,88.36
2018-03-22T03:47:22.838Z,88.74
2018-03-22T03:48:22.796Z,88.55
2018-03-22T03:49:22.805Z,89.12
2018-03-22T03:50:22.795Z,88.74
2018-03-22T03:51:43.738Z,88.74
2018-03-22T03:52:22.682Z,89.03
2018-03-22T03:53:22.646Z,88.84
2018-03-22T03:54:22.690Z,88.84
2018-03-22T03:55:22.635Z,88.55
2018-03-22T03:56:22.648Z,88.46
2018-03-22T03:57:43.571Z,88.46
2018-03-22T03:58:22.606Z,88.65
2018-03-22T03:59:22.535Z,88.65
2018-03-22T04:00:22.507Z,88.84
2018-03-22T04:01:22.476Z,88.74
2018-03-22T04:02:22.437Z,88.46
2018-03-22T04:03:43.475Z,88.74
2018-03-22T04:04:22.383Z,89.03
2018-03-22T04:05:22.387Z,88.55
2018-03-22T04:06:22.360Z,88.84
2018-03-22T04:07:22.381Z,88.55
2018-03-22T04:08:22.297Z,88.84
2018-03-22T04:09:43.278Z,88.74
2018-03-22T04:10:22.272Z,88.74
2018-03-22T04:11:22.234Z,88.93
2018-03-22T04:12:22.195Z,89.22
2018-03-22T04:13:22.930Z,88.55
2018-03-22T04:14:22.150Z,88.36
2018-03-22T04:15:43.184Z,88.93
2018-03-22T04:16:22.133Z,88.93
2018-03-22T04:17:22.110Z,88.93
2018-03-22T04:18:22.048Z,89.50
2018-03-22T04:19:22.807Z,89.12
2018-03-22T04:20:22.006Z,88.93
2018-03-22T04:21:43.017Z,89.12
2018-03-22T04:22:21.984Z,88.74
2018-03-22T04:23:22.869Z,88.65
2018-03-22T04:24:21.930Z,88.55
2018-03-22T04:25:21.908Z,88.46
2018-03-22T04:26:21.859Z,87.98
2018-03-22T04:27:42.852Z,87.98
2018-03-22T04:28:21.811Z,87.42
2018-03-22T04:29:21.838Z,87.32
2018-03-22T04:30:21.771Z,87.42
2018-03-22T04:31:21.826Z,87.61
2018-03-22T04:32:21.757Z,88.17
2018-03-22T04:33:43.339Z,88.27
2018-03-22T04:34:21.732Z,87.70
2018-03-22T04:35:21.682Z,87.98
2018-03-22T04:36:21.676Z,88.55
2018-03-22T04:37:21.589Z,88.36
2018-03-22T04:38:21.589Z,87.98
2018-03-22T04:39:42.537Z,88.08
2018-03-22T04:40:21.552Z,87.98
2018-03-22T04:41:21.536Z,88.08
2018-03-22T04:42:21.505Z,88.27
2018-03-22T04:43:21.469Z,88.46
2018-03-22T04:44:21.432Z,88.36
2018-03-22T04:45:42.404Z,88.36
2018-03-22T04:46:21.484Z,88.65
2018-03-22T04:47:21.344Z,88.27
2018-03-22T04:48:21.331Z,88.27
2018-03-22T04:49:24.925Z,88.27
2018-03-22T04:50:21.274Z,88.17
2018-03-22T04:51:42.246Z,87.98
2018-03-22T04:52:21.932Z,87.79
2018-03-22T04:53:21.299Z,88.46
2018-03-22T04:54:21.225Z,88.65
2018-03-22T04:55:21.148Z,87.89
2018-03-22T04:56:21.140Z,88.65
2018-03-22T04:57:42.196Z,88.08
2018-03-22T04:58:21.824Z,87.98
2018-03-22T04:59:21.110Z,88.27
2018-03-22T05:00:21.055Z,87.98
2018-03-22T05:01:21.009Z,87.98
2018-03-22T05:02:20.990Z,87.79
2018-03-22T05:03:41.942Z,87.98
2018-03-22T05:04:20.946Z,88.27
2018-03-22T05:05:20.925Z,88.08
2018-03-22T05:06:20.909Z,88.08
2018-03-22T05:07:20.861Z,87.32
2018-03-22T05:08:20.867Z,87.23
2018-03-22T05:09:41.875Z,86.57
2018-03-22T05:10:20.782Z,86.29
2018-03-22T05:11:20.764Z,86.42
2018-03-22T05:12:20.733Z,86.23
2018-03-22T05:13:20.758Z,85.95
2018-03-22T05:14:20.714Z,85.95
2018-03-22T05:15:41.674Z,85.95
2018-03-22T05:16:20.662Z,86.14
2018-03-22T05:17:20.636Z,85.85
2018-03-22T05:18:20.625Z,85.95
2018-03-22T05:19:20.573Z,85.38
2018-03-22T05:20:20.537Z,85.57
2018-03-22T05:21:41.534Z,85.57
2018-03-22T05:22:20.472Z,85.76
2018-03-22T05:23:20.471Z,85.57
2018-03-22T05:24:20.425Z,85.38
2018-03-22T05:25:20.425Z,85.28
2018-03-22T05:26:20.393Z,84.91
2018-03-22T05:27:41.373Z,84.81
2018-03-22T05:28:20.318Z,84.63
2018-03-22T05:29:20.320Z,84.53
2018-03-22T05:30:20.279Z,83.68
2018-03-22T05:31:20.258Z,84.16
2018-03-22T05:32:20.230Z,83.59
2018-03-22T05:33:41.203Z,83.97
2018-03-22T05:34:20.179Z,84.06
2018-03-22T05:35:20.172Z,83.68
2018-03-22T05:36:20.139Z,83.87
2018-03-22T05:37:20.110Z,83.97
2018-03-22T05:38:20.104Z,84.06
2018-03-22T05:39:41.075Z,83.97
2018-03-22T05:40:20.053Z,83.78
2018-03-22T05:41:20.014Z,83.63
2018-03-22T05:42:19.988Z,84.16
2018-03-22T05:43:19.954Z,84.01
2018-03-22T05:44:19.922Z,84.25
2018-03-22T05:45:40.938Z,84.29
2018-03-22T05:46:19.889Z,84.67
2018-03-22T05:47:19.865Z,84.25
2018-03-22T05:48:19.855Z,84.25
2018-03-22T05:49:19.827Z,84.25
2018-03-22T05:50:19.810Z,84.06
2018-03-22T05:51:41.393Z,84.63
2018-03-22T05:52:19.766Z,85.00
2018-03-22T05:53:19.712Z,85.85
2018-03-22T05:54:19.693Z,86.61
2018-03-22T05:55:19.681Z,87.55
2018-03-22T05:56:19.701Z,88.03
2018-03-22T05:57:40.710Z,88.12
2018-03-22T05:58:19.693Z,88.22
2018-03-22T05:59:19.674Z,88.50
2018-03-22T06:00:19.634Z,88.69
2018-03-22T06:01:19.538Z,89.17
2018-03-22T06:02:19.508Z,89.64
2018-03-22T06:03:40.521Z,90.11
2018-03-22T06:04:19.461Z,90.39
2018-03-22T06:05:19.455Z,90.86
2018-03-22T06:06:19.419Z,90.77
2018-03-22T06:07:19.387Z,91.24
2018-03-22T06:08:19.374Z,91.24
2018-03-22T06:09:47.844Z,91.91
2018-03-22T06:10:19.323Z,91.53
2018-03-22T06:11:19.294Z,91.62
2018-03-22T06:12:19.297Z,91.72
2018-03-22T06:13:19.240Z,92.57
2018-03-22T06:14:19.253Z,92.38
2018-03-22T06:15:40.177Z,92.00
2018-03-22T06:16:19.189Z,92.19
2018-03-22T06:17:19.129Z,92.19
2018-03-22T06:18:19.106Z,92.29
2018-03-22T06:19:19.125Z,92.38
2018-03-22T06:20:19.075Z,92.47
2018-03-22T06:21:40.053Z,92.29
2018-03-22T06:22:19.040Z,92.47
2018-03-22T06:23:19.026Z,92.29
2018-03-22T06:24:18.966Z,92.29
2018-03-22T06:25:18.947Z,92.19
2018-03-22T06:26:18.986Z,92.00
2018-03-22T06:27:39.896Z,92.19
2018-03-22T06:28:18.871Z,92.47
2018-03-22T06:29:18.854Z,91.43
2018-03-22T06:30:18.819Z,91.62
2018-03-22T06:31:18.821Z,91.24
2018-03-22T06:32:18.772Z,91.62
2018-03-22T06:33:39.741Z,91.29
2018-03-22T06:34:18.746Z,91.29
2018-03-22T06:35:18.708Z,90.72
2018-03-22T06:36:18.688Z,90.63
2018-03-22T06:37:18.666Z,90.72
2018-03-22T06:38:18.680Z,90.34
2018-03-22T06:39:39.614Z,90.25
2018-03-22T06:40:18.627Z,90.53
2018-03-22T06:41:18.572Z,90.06
2018-03-22T06:42:18.530Z,90.16
2018-03-22T06:43:18.508Z,90.34
2018-03-22T06:44:18.515Z,89.31
2018-03-22T06:45:39.469Z,89.69
2018-03-22T06:46:18.450Z,90.72
2018-03-22T06:47:18.424Z,90.06
2018-03-22T06:48:18.394Z,90.44
2018-03-22T06:49:18.390Z,90.16
2018-03-22T06:50:18.375Z,90.34
2018-03-22T06:51:39.340Z,90.34
2018-03-22T06:52:18.303Z,91.01
2018-03-22T06:53:18.261Z,90.72
2018-03-22T06:54:18.247Z,90.82
2018-03-22T06:55:18.238Z,91.10
2018-03-22T06:56:18.209Z,90.25
2018-03-22T06:57:39.182Z,89.97
2018-03-22T06:58:18.182Z,90.06
2018-03-22T06:59:18.141Z,89.97
2018-03-22T07:00:18.112Z,90.16
2018-03-22T07:01:18.096Z,90.25
2018-03-22T07:02:18.075Z,90.44
2018-03-22T07:03:39.030Z,90.06
2018-03-22T07:04:18.007Z,90.16
2018-03-22T07:05:18.022Z,89.87
2018-03-22T07:06:18.003Z,89.40
2018-03-22T07:07:17.996Z,90.06
2018-03-22T07:08:17.953Z,89.59
2018-03-22T07:09:38.906Z,88.74
2018-03-22T07:10:17.890Z,89.02
2018-03-22T07:11:17.907Z,89.21
2018-03-22T07:12:17.843Z,89.40
2018-03-22T07:13:17.805Z,89.59
2018-03-22T07:14:17.814Z,89.50
2018-03-22T07:15:38.753Z,89.12
2018-03-22T07:16:17.728Z,89.31
2018-03-22T07:17:17.729Z,89.40
2018-03-22T07:18:17.732Z,89.40
2018-03-22T07:19:17.747Z,89.31
2018-03-22T07:20:17.659Z,89.31
2018-03-22T07:21:38.632Z,88.93
2018-03-22T07:22:17.603Z,89.02
2018-03-22T07:23:17.585Z,89.02
2018-03-22T07:24:17.571Z,88.36
2018-03-22T07:25:17.515Z,88.93
2018-03-22T07:26:17.495Z,88.36
2018-03-22T07:27:38.505Z,88.26
2018-03-22T07:28:17.497Z,87.88
2018-03-22T07:29:17.422Z,88.17
2018-03-22T07:30:17.492Z,88.12
2018-03-22T07:31:17.557Z,88.21
2018-03-22T07:32:17.440Z,87.46
2018-03-22T07:33:38.341Z,87.65
2018-03-22T07:34:17.336Z,87.08
2018-03-22T07:35:17.341Z,86.98
2018-03-22T07:36:17.293Z,86.41
2018-03-22T07:37:17.254Z,86.41
2018-03-22T07:38:17.220Z,86.79
2018-03-22T07:39:38.196Z,86.56
2018-03-22T07:40:17.256Z,86.56
2018-03-22T07:41:17.164Z,86.60
2018-03-22T07:42:17.135Z,86.37
2018-03-22T07:43:17.130Z,86.51
2018-03-22T07:44:17.064Z,86.04
2018-03-22T07:45:38.090Z,85.99
2018-03-22T07:46:17.047Z,85.71
2018-03-22T07:47:17.047Z,85.52
2018-03-22T07:48:16.995Z,85.80
2018-03-22T07:49:17.011Z,85.47
2018-03-22T07:50:16.939Z,85.19
2018-03-22T07:51:37.912Z,85.19
2018-03-22T07:52:16.959Z,84.71
2018-03-22T07:53:16.877Z,84.90
2018-03-22T07:54:16.858Z,85.09
2018-03-22T07:55:16.867Z,84.71
2018-03-22T07:56:16.852Z,84.90
2018-03-22T07:57:37.978Z,84.81
2018-03-22T07:58:17.645Z,84.81
2018-03-22T07:59:16.756Z,84.52
2018-03-22T08:00:16.739Z,84.52
2018-03-22T08:01:16.701Z,84.23
2018-03-22T08:02:16.750Z,84.42
2018-03-22T08:03:37.727Z,84.52
2018-03-22T08:04:16.641Z,84.23
2018-03-22T08:05:16.602Z,84.23
2018-03-22T08:06:16.630Z,84.23
2018-03-22T08:07:16.986Z,84.42
2018-03-22T08:08:16.554Z,84.33
2018-03-22T08:09:37.507Z,84.42
2018-03-22T08:10:17.481Z,84.33
2018-03-22T08:11:16.486Z,84.33
2018-03-22T08:12:16.425Z,84.33
2018-03-22T08:13:16.417Z,84.42
2018-03-22T08:14:16.351Z,84.81
2018-03-22T08:15:37.492Z,85.28
2018-03-22T08:16:16.565Z,85.38
2018-03-22T08:17:16.340Z,85.47
2018-03-22T08:18:17.114Z,85.66
2018-03-22T08:19:16.302Z,85.28
2018-03-22T08:20:16.650Z,85.47
2018-03-22T08:21:38.055Z,85.42
2018-03-22T08:22:16.551Z,86.18
2018-03-22T08:23:16.902Z,86.75
2018-03-22T08:24:17.661Z,87.23
2018-03-22T08:25:17.265Z,87.51
2018-03-22T08:26:16.304Z,87.98
2018-03-22T08:27:37.137Z,88.45
2018-03-22T08:28:16.540Z,88.64
2018-03-22T08:29:16.343Z,89.40
2018-03-22T08:30:16.166Z,89.69
2018-03-22T08:31:16.237Z,89.78
2018-03-22T08:32:15.970Z,89.87
2018-03-22T08:33:37.030Z,90.34
2018-03-22T08:34:18.754Z,90.91
2018-03-22T08:35:16.083Z,90.91
2018-03-22T08:36:16.148Z,90.53
2018-03-22T08:37:15.927Z,90.82
2018-03-22T08:38:17.521Z,91.10
2018-03-22T08:39:36.911Z,91.10
2018-03-22T08:40:15.758Z,91.10
2018-03-22T08:41:15.851Z,91.67
2018-03-22T08:42:15.781Z,92.05
2018-03-22T08:43:15.726Z,92.14
2018-03-22T08:44:15.672Z,92.52
2018-03-22T08:45:36.652Z,92.99
2018-03-22T08:46:15.643Z,92.99
2018-03-22T08:47:15.621Z,93.47
2018-03-22T08:48:15.602Z,92.80
2018-03-22T08:49:15.584Z,92.90
2018-03-22T08:50:15.540Z,93.66
2018-03-22T08:51:36.990Z,94.13
2018-03-22T08:52:15.883Z,94.89
2018-03-22T08:53:15.439Z,94.79
2018-03-22T08:54:15.416Z,95.40
2018-03-22T08:55:15.440Z,95.64
2018-03-22T08:56:15.392Z,95.45
2018-03-22T08:57:36.454Z,96.31
2018-03-22T08:58:15.325Z,96.26
2018-03-22T08:59:15.346Z,96.97
2018-03-22T09:00:15.390Z,96.83
2018-03-22T09:01:15.255Z,97.58
2018-03-22T09:02:15.401Z,97.77
2018-03-22T09:03:36.228Z,98.05
2018-03-22T09:04:15.220Z,97.86
2018-03-22T09:05:15.201Z,97.96
2018-03-22T09:06:15.390Z,98.39
2018-03-22T09:07:15.221Z,98.48
2018-03-22T09:08:15.305Z,98.58
2018-03-22T09:09:36.361Z,98.52
2018-03-22T09:10:15.186Z,98.86
2018-03-22T09:11:15.371Z,99.28
2018-03-22T09:12:15.099Z,98.96
2018-03-22T09:13:14.969Z,99.15
2018-03-22T09:14:15.026Z,99.38
2018-03-22T09:15:35.956Z,99.57
2018-03-22T09:16:14.905Z,99.71
2018-03-22T09:17:15.487Z,99.99
2018-03-22T09:18:14.887Z,99.99
2018-03-22T09:19:14.839Z,99.71
2018-03-22T09:20:14.808Z,99.80
2018-03-22T09:21:35.856Z,99.52
2018-03-22T09:22:14.757Z,99.52
2018-03-22T09:23:14.784Z,99.62
2018-03-22T09:24:14.758Z,99.33
2018-03-22T09:25:14.784Z,98.77
2018-03-22T09:26:14.681Z,98.29
2018-03-22T09:27:35.666Z,98.01
2018-03-22T09:28:14.612Z,98.01
2018-03-22T09:29:14.664Z,98.39
2018-03-22T09:30:14.598Z,98.48
2018-03-22T09:31:14.559Z,98.29
2018-03-22T09:32:14.573Z,98.20
2018-03-22T09:33:35.566Z,97.82
2018-03-22T09:34:14.515Z,97.91
2018-03-22T09:35:14.438Z,98.01
2018-03-22T09:36:14.419Z,98.01
2018-03-22T09:37:14.419Z,97.53
2018-03-22T09:38:14.367Z,97.34
2018-03-22T09:39:35.411Z,96.69
2018-03-22T09:40:14.422Z,96.35
2018-03-22T09:41:14.308Z,95.78
2018-03-22T09:42:14.316Z,95.78
2018-03-22T09:43:14.319Z,95.50
2018-03-22T09:44:14.259Z,94.84
2018-03-22T09:45:35.225Z,94.56
2018-03-22T09:46:14.217Z,94.84
2018-03-22T09:47:14.180Z,94.65
2018-03-22T09:48:14.233Z,94.74
2018-03-22T09:49:14.130Z,94.65
2018-03-22T09:50:14.096Z,94.56
2018-03-22T09:51:35.105Z,94.37
2018-03-22T09:52:14.049Z,94.37
2018-03-22T09:53:14.037Z,94.18
2018-03-22T09:54:14.339Z,94.08
2018-03-22T09:55:13.990Z,94.18
2018-03-22T09:56:13.935Z,93.70
2018-03-22T09:57:34.933Z,93.32
2018-03-22T09:58:13.912Z,92.85
2018-03-22T09:59:13.875Z,92.85
2018-03-22T10:00:13.895Z,92.90
2018-03-22T10:01:13.835Z,92.94
2018-03-22T10:02:13.861Z,92.99
2018-03-22T10:03:34.841Z,92.33
2018-03-22T10:04:13.763Z,92.61
2018-03-22T10:05:13.756Z,91.38
2018-03-22T10:06:13.714Z,91.48
2018-03-22T10:07:13.724Z,92.05
2018-03-22T10:08:13.734Z,91.29
2018-03-22T10:09:34.696Z,91.67
2018-03-22T10:10:13.690Z,91.29
2018-03-22T10:11:13.609Z,91.19
2018-03-22T10:12:13.580Z,91.76
2018-03-22T10:13:13.563Z,91.53
2018-03-22T10:14:13.593Z,91.34
2018-03-22T10:15:34.532Z,91.15
2018-03-22T10:16:13.505Z,91.34
2018-03-22T10:17:13.509Z,91.62
2018-03-22T10:18:13.465Z,91.24
2018-03-22T10:19:13.419Z,91.24
2018-03-22T10:20:13.433Z,91.53
2018-03-22T10:21:34.965Z,91.53
2018-03-22T10:22:13.341Z,91.43
2018-03-22T10:23:13.332Z,91.34
2018-03-22T10:24:13.305Z,91.34
2018-03-22T10:25:13.266Z,91.43
2018-03-22T10:26:13.258Z,91.72
2018-03-22T10:27:34.254Z,92.10
2018-03-22T10:28:13.240Z,91.72
2018-03-22T10:29:13.179Z,91.91
2018-03-22T10:30:13.179Z,91.81
2018-03-22T10:31:13.162Z,92.14
2018-03-22T10:32:13.138Z,91.95
2018-03-22T10:33:34.117Z,91.86
2018-03-22T10:34:13.086Z,91.15
2018-03-22T10:35:13.070Z,90.58
2018-03-22T10:36:13.028Z,91.34
2018-03-22T10:37:13.019Z,91.15
2018-03-22T10:38:12.985Z,91.62
2018-03-22T10:39:33.956Z,91.91
2018-03-22T10:40:12.951Z,92.38
2018-03-22T10:41:12.912Z,92.66
2018-03-22T10:42:12.906Z,92.94
2018-03-22T10:43:12.873Z,93.04
2018-03-22T10:44:12.828Z,93.23
2018-03-22T10:45:33.804Z,92.66
2018-03-22T10:46:12.791Z,92.66
2018-03-22T10:47:12.781Z,92.85
2018-03-22T10:48:12.775Z,92.66
2018-03-22T10:49:12.701Z,92.66
2018-03-22T10:50:12.716Z,92.57
2018-03-22T10:51:33.697Z,92.66
2018-03-22T10:52:12.691Z,93.04
2018-03-22T10:53:12.666Z,93.42
2018-03-22T10:54:12.624Z,93.04
2018-03-22T10:55:12.591Z,92.94
2018-03-22T10:56:12.595Z,92.94
2018-03-22T10:57:33.558Z,92.76
2018-03-22T10:58:12.562Z,93.04
2018-03-22T10:59:12.520Z,93.61
2018-03-22T11:00:12.487Z,93.89
2018-03-22T11:01:12.483Z,94.18
2018-03-22T11:02:12.477Z,94.37
2018-03-22T11:03:33.414Z,95.12
2018-03-22T11:04:12.375Z,94.46
2018-03-22T11:05:12.371Z,94.84
2018-03-22T11:06:12.361Z,95.21
2018-03-22T11:07:12.343Z,95.50
2018-03-22T11:08:12.304Z,95.12
2018-03-22T11:09:33.279Z,95.12
2018-03-22T11:10:12.283Z,95.21
2018-03-22T11:11:12.268Z,95.40
2018-03-22T11:12:12.192Z,95.12
2018-03-22T11:13:12.207Z,94.84
2018-03-22T11:14:12.146Z,94.27
2018-03-22T11:15:33.142Z,94.37
2018-03-22T11:16:12.079Z,94.74
2018-03-22T11:17:12.110Z,94.84
2018-03-22T11:18:12.061Z,95.31
2018-03-22T11:19:12.048Z,95.50
2018-03-22T11:20:12.029Z,95.78
2018-03-22T11:21:32.982Z,95.69
2018-03-22T11:22:11.974Z,96.50
2018-03-22T11:23:11.977Z,95.74
2018-03-22T11:24:12.097Z,95.74
2018-03-22T11:25:11.926Z,96.12
2018-03-22T11:26:11.871Z,94.89
2018-03-22T11:27:32.854Z,94.51
2018-03-22T11:28:11.850Z,94.98
2018-03-22T11:29:11.805Z,94.98
2018-03-22T11:30:11.793Z,94.98
2018-03-22T11:31:11.755Z,96.31
2018-03-22T11:32:11.738Z,95.74
2018-03-22T11:33:32.746Z,95.74
2018-03-22T11:34:11.725Z,96.31
2018-03-22T11:35:11.673Z,96.40
2018-03-22T11:36:11.661Z,95.83
2018-03-22T11:37:11.626Z,96.35
2018-03-22T11:38:11.594Z,96.45
2018-03-22T11:39:32.573Z,97.35
2018-03-22T11:40:11.580Z,97.35
2018-03-22T11:41:11.544Z,97.63
2018-03-22T11:42:11.523Z,97.44
2018-03-22T11:43:11.545Z,97.16
2018-03-22T11:44:11.460Z,96.78
2018-03-22T11:45:32.456Z,95.74
2018-03-22T11:46:11.427Z,95.36
2018-03-22T11:47:11.379Z,95.55
2018-03-22T11:48:11.368Z,95.45
2018-03-22T11:49:11.351Z,95.74
2018-03-22T11:50:11.327Z,95.55
2018-03-22T11:51:32.320Z,94.98
2018-03-22T11:52:11.292Z,95.45
2018-03-22T11:53:11.248Z,95.45
2018-03-22T11:54:11.270Z,95.83
2018-03-22T11:55:11.206Z,96.12
2018-03-22T11:56:11.229Z,96.31
2018-03-22T11:57:32.176Z,95.83
2018-03-22T11:58:11.143Z,96.12
2018-03-22T11:59:11.122Z,95.55
2018-03-22T12:00:11.093Z,95.74
2018-03-22T12:01:11.094Z,95.83
2018-03-22T12:02:11.048Z,96.02
2018-03-22T12:03:32.041Z,95.55
2018-03-22T12:04:11.025Z,96.02
2018-03-22T12:05:10.989Z,95.83
2018-03-22T12:06:10.959Z,96.50
2018-03-22T12:07:10.940Z,96.59
2018-03-22T12:08:10.935Z,96.97
2018-03-22T12:09:31.883Z,96.69
2018-03-22T12:10:10.917Z,96.97
2018-03-22T12:11:10.830Z,97.16
2018-03-22T12:12:10.853Z,97.16
2018-03-22T12:13:10.782Z,97.44
2018-03-22T12:14:10.781Z,97.54
2018-03-22T12:15:31.754Z,97.44
2018-03-22T12:16:10.733Z,97.25
2018-03-22T12:17:10.706Z,97.54
2018-03-22T12:18:10.720Z,97.35
2018-03-22T12:19:10.658Z,97.35
2018-03-22T12:20:10.650Z,97.54
2018-03-22T12:21:31.632Z,96.88
2018-03-22T12:22:10.605Z,96.97
2018-03-22T12:23:10.578Z,97.35
2018-03-22T12:24:10.577Z,96.88
2018-03-22T12:25:10.549Z,97.06
2018-03-22T12:26:10.497Z,97.44
2018-03-22T12:27:31.474Z,97.54
2018-03-22T12:28:10.462Z,97.44
2018-03-22T12:29:10.430Z,97.92
2018-03-22T12:30:10.430Z,97.35
2018-03-22T12:31:10.399Z,97.54
2018-03-22T12:32:10.360Z,97.54
2018-03-22T12:33:31.343Z,98.20
2018-03-22T12:34:10.320Z,97.54
2018-03-22T12:35:10.286Z,97.44
2018-03-22T12:36:10.299Z,97.25
2018-03-22T12:37:10.270Z,97.44
2018-03-22T12:38:10.218Z,97.63
2018-03-22T12:39:31.215Z,96.88
2018-03-22T12:40:10.176Z,96.50
2018-03-22T12:41:10.176Z,95.55
2018-03-22T12:42:10.157Z,95.83
2018-03-22T12:43:10.201Z,95.64
2018-03-22T12:44:10.078Z,95.93
2018-03-22T12:45:31.087Z,96.40
2018-03-22T12:46:10.032Z,96.40
2018-03-22T12:47:10.018Z,96.31
2018-03-22T12:48:10.048Z,96.02
2018-03-22T12:49:09.989Z,95.45
2018-03-22T12:50:10.002Z,95.55
2018-03-22T12:51:30.931Z,95.26
2018-03-22T12:52:09.951Z,94.60